sensor_id;sensor_type;location;lat;lon;timestamp;pressure;altitude;pressure_sealevel;temperature;humidity
15382;BME280;7789;51.364;12.358;2024-01-15T00:03:35;98511.50;;;3.47;100.00
15382;BME280;7789;51.364;12.358;2024-01-15T00:08:40;98506.63;;;3.53;100.00
15382;BME280;7789;51.364;12.358;2024-01-15T00:13:43;98497.13;;;3.54;100.00
15382;BME280;7789;51.364;12.358;2024-01-15T00:18:47;98485.56;;;3.48;100.00
15382;BME280;7789;51.364;12.358;2024-01-15T00:23:52;98476.53;;;3.43;100.00
15382;BME280;7789;51.364;12.358;2024-01-15T00:28:56;98468.22;;;3.39;100.00
15382;BME280;7789;51.364;12.358;2024-01-15T00:33:59;98471.06;;;3.36;100.00
15382;BME280;7789;51.364;12.358;2024-01-15T00:39:04;98455.03;;;3.33;100.00
15382;BME280;7789;51.364;12.358;2024-01-15T00:44:08;98442.38;;;3.30;100.00
15382;BME280;7789;51.364;12.358;2024-01-15T00:49:11;98442.13;;;3.33;100.00
15382;BME280;7789;51.364;12.358;2024-01-15T00:54:17;98447.41;;;3.31;100.00
15382;BME280;7789;51.364;12.358;2024-01-15T00:59:20;98452.16;;;3.26;100.00
15382;BME280;7789;51.364;12.358;2024-01-15T01:04:24;98446.16;;;3.26;100.00
15382;BME280;7789;51.364;12.358;2024-01-15T01:09:30;98434.88;;;3.27;100.00
15382;BME280;7789;51.364;12.358;2024-01-15T01:14:34;98444.63;;;3.23;100.00
15382;BME280;7789;51.364;12.358;2024-01-15T01:19:40;98436.88;;;3.23;100.00
15382;BME280;7789;51.364;12.358;2024-01-15T01:24:48;98436.19;;;3.21;100.00
15382;BME280;7789;51.364;12.358;2024-01-15T01:29:52;98446.97;;;3.26;100.00
15382;BME280;7789;51.364;12.358;2024-01-15T01:35:08;98444.94;;;3.30;100.00
15382;BME280;7789;51.364;12.358;2024-01-15T01:40:14;98437.66;;;3.35;100.00
15382;BME280;7789;51.364;12.358;2024-01-15T01:45:20;98420.28;;;3.37;100.00
15382;BME280;7789;51.364;12.358;2024-01-15T01:50:30;98419.44;;;3.36;100.00
15382;BME280;7789;51.364;12.358;2024-01-15T01:55:40;98429.84;;;3.25;100.00
15382;BME280;7789;51.364;12.358;2024-01-15T02:00:44;98420.97;;;3.18;100.00
15382;BME280;7789;51.364;12.358;2024-01-15T02:05:55;98418.78;;;3.14;100.00
15382;BME280;7789;51.364;12.358;2024-01-15T02:11:00;98402.84;;;3.09;100.00
15382;BME280;7789;51.364;12.358;2024-01-15T02:16:04;98409.34;;;3.03;100.00
15382;BME280;7789;51.364;12.358;2024-01-15T02:21:07;98393.47;;;3.08;100.00
15382;BME280;7789;51.364;12.358;2024-01-15T02:26:12;98393.59;;;3.06;100.00
15382;BME280;7789;51.364;12.358;2024-01-15T02:31:18;98400.44;;;3.07;100.00
15382;BME280;7789;51.364;12.358;2024-01-15T02:36:22;98410.03;;;3.05;100.00
15382;BME280;7789;51.364;12.358;2024-01-15T02:41:27;98405.69;;;3.06;100.00
15382;BME280;7789;51.364;12.358;2024-01-15T02:46:30;98402.44;;;3.04;100.00
15382;BME280;7789;51.364;12.358;2024-01-15T02:51:34;98389.28;;;3.07;99.70
15382;BME280;7789;51.364;12.358;2024-01-15T02:56:38;98398.22;;;3.03;99.72
15382;BME280;7789;51.364;12.358;2024-01-15T03:01:42;98396.44;;;3.03;100.00
15382;BME280;7789;51.364;12.358;2024-01-15T03:06:45;98394.13;;;3.00;100.00
15382;BME280;7789;51.364;12.358;2024-01-15T03:11:50;98400.50;;;2.96;100.00
15382;BME280;7789;51.364;12.358;2024-01-15T03:16:54;98399.53;;;2.77;100.00
15382;BME280;7789;51.364;12.358;2024-01-15T03:21:57;98393.25;;;2.70;100.00
15382;BME280;7789;51.364;12.358;2024-01-15T03:27:04;98404.38;;;2.70;100.00
15382;BME280;7789;51.364;12.358;2024-01-15T03:32:08;98410.56;;;2.58;100.00
15382;BME280;7789;51.364;12.358;2024-01-15T03:37:11;98414.69;;;2.50;100.00
15382;BME280;7789;51.364;12.358;2024-01-15T03:42:16;98414.59;;;2.40;100.00
15382;BME280;7789;51.364;12.358;2024-01-15T03:47:19;98413.59;;;2.32;100.00
15382;BME280;7789;51.364;12.358;2024-01-15T03:52:23;98427.88;;;2.25;100.00
15382;BME280;7789;51.364;12.358;2024-01-15T03:57:28;98424.03;;;2.19;100.00
15382;BME280;7789;51.364;12.358;2024-01-15T04:02:31;98422.66;;;2.15;100.00
15382;BME280;7789;51.364;12.358;2024-01-15T04:07:34;98423.81;;;2.22;100.00
15382;BME280;7789;51.364;12.358;2024-01-15T04:12:39;98406.41;;;2.35;100.00
15382;BME280;7789;51.364;12.358;2024-01-15T04:17:43;98423.38;;;2.49;100.00
15382;BME280;7789;51.364;12.358;2024-01-15T04:22:46;98425.53;;;2.53;100.00
15382;BME280;7789;51.364;12.358;2024-01-15T04:27:51;98416.56;;;2.48;100.00
15382;BME280;7789;51.364;12.358;2024-01-15T04:32:54;98422.44;;;2.39;100.00
15382;BME280;7789;51.364;12.358;2024-01-15T04:37:58;98415.09;;;2.34;100.00
15382;BME280;7789;51.364;12.358;2024-01-15T04:43:03;98425.88;;;2.28;100.00
15382;BME280;7789;51.364;12.358;2024-01-15T04:48:07;98419.47;;;2.23;100.00
15382;BME280;7789;51.364;12.358;2024-01-15T04:53:10;98421.53;;;2.29;100.00
15382;BME280;7789;51.364;12.358;2024-01-15T04:58:15;98411.88;;;2.42;100.00
15382;BME280;7789;51.364;12.358;2024-01-15T05:03:19;98414.22;;;2.45;100.00
15382;BME280;7789;51.364;12.358;2024-01-15T05:08:23;98404.13;;;2.53;100.00
15382;BME280;7789;51.364;12.358;2024-01-15T05:13:27;98402.81;;;2.58;100.00
15382;BME280;7789;51.364;12.358;2024-01-15T05:18:31;98399.84;;;2.63;100.00
15382;BME280;7789;51.364;12.358;2024-01-15T05:23:46;98403.00;;;2.66;99.37
15382;BME280;7789;51.364;12.358;2024-01-15T05:28:55;98388.69;;;2.73;99.24
15382;BME280;7789;51.364;12.358;2024-01-15T05:33:58;98383.63;;;2.72;98.29
15382;BME280;7789;51.364;12.358;2024-01-15T05:39:02;98375.47;;;2.67;98.65
15382;BME280;7789;51.364;12.358;2024-01-15T05:44:07;98380.78;;;2.75;98.21
15382;BME280;7789;51.364;12.358;2024-01-15T05:49:11;98388.28;;;2.78;98.56
15382;BME280;7789;51.364;12.358;2024-01-15T05:54:17;98384.63;;;2.80;98.04
15382;BME280;7789;51.364;12.358;2024-01-15T05:59:23;98383.56;;;2.83;97.26
15382;BME280;7789;51.364;12.358;2024-01-15T06:04:27;98363.88;;;2.82;97.60
15382;BME280;7789;51.364;12.358;2024-01-15T06:09:55;98364.56;;;2.84;97.49
15382;BME280;7789;51.364;12.358;2024-01-15T06:15:00;98381.53;;;2.86;96.96
15382;BME280;7789;51.364;12.358;2024-01-15T06:20:05;98383.06;;;2.89;96.64
15382;BME280;7789;51.364;12.358;2024-01-15T06:25:09;98393.13;;;2.92;96.99
15382;BME280;7789;51.364;12.358;2024-01-15T06:30:15;98391.59;;;2.89;96.95
15382;BME280;7789;51.364;12.358;2024-01-15T06:35:19;98389.97;;;2.88;96.08
15382;BME280;7789;51.364;12.358;2024-01-15T06:40:24;98389.97;;;2.88;96.19
15382;BME280;7789;51.364;12.358;2024-01-15T06:45:29;98377.78;;;2.90;96.39
15382;BME280;7789;51.364;12.358;2024-01-15T06:50:33;98389.84;;;2.90;96.32
15382;BME280;7789;51.364;12.358;2024-01-15T06:55:36;98393.25;;;2.90;95.87
15382;BME280;7789;51.364;12.358;2024-01-15T07:00:41;98392.16;;;2.93;95.92
15382;BME280;7789;51.364;12.358;2024-01-15T07:05:45;98392.84;;;2.95;95.88
15382;BME280;7789;51.364;12.358;2024-01-15T07:10:48;98396.84;;;2.99;95.88
15382;BME280;7789;51.364;12.358;2024-01-15T07:15:53;98381.38;;;2.99;95.82
15382;BME280;7789;51.364;12.358;2024-01-15T07:20:57;98394.25;;;2.99;95.56
15382;BME280;7789;51.364;12.358;2024-01-15T07:26:00;98400.50;;;2.96;94.74
15382;BME280;7789;51.364;12.358;2024-01-15T07:31:06;98397.69;;;2.88;94.38
15382;BME280;7789;51.364;12.358;2024-01-15T07:36:09;98407.53;;;2.94;95.08
15382;BME280;7789;51.364;12.358;2024-01-15T07:41:13;98401.38;;;2.86;94.70
15382;BME280;7789;51.364;12.358;2024-01-15T07:46:18;98395.22;;;2.77;94.74
15382;BME280;7789;51.364;12.358;2024-01-15T07:51:22;98391.25;;;2.73;95.01
15382;BME280;7789;51.364;12.358;2024-01-15T07:56:26;98396.09;;;2.67;94.65
15382;BME280;7789;51.364;12.358;2024-01-15T08:01:31;98408.97;;;2.67;95.83
15382;BME280;7789;51.364;12.358;2024-01-15T08:06:35;98413.75;;;2.92;94.75
15382;BME280;7789;51.364;12.358;2024-01-15T08:11:39;98410.75;;;3.07;94.19
15382;BME280;7789;51.364;12.358;2024-01-15T08:16:45;98413.75;;;3.12;94.02
15382;BME280;7789;51.364;12.358;2024-01-15T08:21:48;98421.53;;;3.22;93.46
15382;BME280;7789;51.364;12.358;2024-01-15T08:26:52;98418.28;;;3.20;93.85
15382;BME280;7789;51.364;12.358;2024-01-15T08:31:57;98413.88;;;3.41;92.92
15382;BME280;7789;51.364;12.358;2024-01-15T08:37:01;98406.44;;;3.47;92.10
15382;BME280;7789;51.364;12.358;2024-01-15T08:42:05;98407.56;;;3.54;92.17
15382;BME280;7789;51.364;12.358;2024-01-15T08:47:10;98411.53;;;3.58;92.42
15382;BME280;7789;51.364;12.358;2024-01-15T08:52:13;98403.22;;;3.55;92.02
15382;BME280;7789;51.364;12.358;2024-01-15T08:57:16;98413.84;;;3.61;92.20
15382;BME280;7789;51.364;12.358;2024-01-15T09:02:21;98407.00;;;3.99;91.43
15382;BME280;7789;51.364;12.358;2024-01-15T09:07:25;98411.66;;;4.05;90.36
15382;BME280;7789;51.364;12.358;2024-01-15T09:12:29;98409.75;;;4.07;89.41
15382;BME280;7789;51.364;12.358;2024-01-15T09:17:33;98407.28;;;4.06;89.57
15382;BME280;7789;51.364;12.358;2024-01-15T09:22:38;98408.53;;;4.11;89.73
15382;BME280;7789;51.364;12.358;2024-01-15T09:27:42;98398.88;;;4.13;89.88
15382;BME280;7789;51.364;12.358;2024-01-15T09:32:47;98414.66;;;4.10;88.86
15382;BME280;7789;51.364;12.358;2024-01-15T09:37:52;98422.81;;;4.06;88.96
15382;BME280;7789;51.364;12.358;2024-01-15T09:42:55;98418.47;;;4.06;89.86
15382;BME280;7789;51.364;12.358;2024-01-15T09:48:01;98417.09;;;4.02;89.73
15382;BME280;7789;51.364;12.358;2024-01-15T09:53:05;98407.31;;;4.15;89.26
15382;BME280;7789;51.364;12.358;2024-01-15T09:58:09;98413.03;;;4.28;88.15
15382;BME280;7789;51.364;12.358;2024-01-15T10:03:15;98413.44;;;4.33;88.55
15382;BME280;7789;51.364;12.358;2024-01-15T10:08:18;98412.09;;;4.29;87.91
15382;BME280;7789;51.364;12.358;2024-01-15T10:13:22;98403.66;;;4.27;87.82
15382;BME280;7789;51.364;12.358;2024-01-15T10:18:27;98403.25;;;4.22;87.65
15382;BME280;7789;51.364;12.358;2024-01-15T10:23:32;98400.66;;;4.22;87.51
15382;BME280;7789;51.364;12.358;2024-01-15T10:28:35;98391.69;;;4.26;88.17
15382;BME280;7789;51.364;12.358;2024-01-15T10:33:40;98400.00;;;4.30;88.00
15382;BME280;7789;51.364;12.358;2024-01-15T10:38:44;98388.03;;;4.29;87.72
15382;BME280;7789;51.364;12.358;2024-01-15T10:43:47;98389.66;;;4.30;88.13
15382;BME280;7789;51.364;12.358;2024-01-15T10:48:55;98387.34;;;4.36;88.58
15382;BME280;7789;51.364;12.358;2024-01-15T10:53:59;98393.59;;;4.34;88.18
15382;BME280;7789;51.364;12.358;2024-01-15T10:59:04;98382.41;;;4.33;87.96
15382;BME280;7789;51.364;12.358;2024-01-15T11:04:11;98388.81;;;4.39;88.02
15382;BME280;7789;51.364;12.358;2024-01-15T11:09:14;98381.50;;;4.34;87.13
15382;BME280;7789;51.364;12.358;2024-01-15T11:14:38;98380.09;;;4.40;87.59
15382;BME280;7789;51.364;12.358;2024-01-15T11:19:47;98383.25;;;4.43;87.04
15382;BME280;7789;51.364;12.358;2024-01-15T11:24:54;98385.56;;;4.46;87.59
15382;BME280;7789;51.364;12.358;2024-01-15T11:30:03;98376.56;;;4.50;87.32
15382;BME280;7789;51.364;12.358;2024-01-15T11:35:09;98385.56;;;4.46;86.93
15382;BME280;7789;51.364;12.358;2024-01-15T11:40:17;98386.50;;;4.45;86.70
15382;BME280;7789;51.364;12.358;2024-01-15T11:45:22;98385.16;;;4.41;87.47
15382;BME280;7789;51.364;12.358;2024-01-15T11:50:30;98380.81;;;4.51;87.59
15382;BME280;7789;51.364;12.358;2024-01-15T11:55:34;98373.56;;;4.55;87.10
15382;BME280;7789;51.364;12.358;2024-01-15T12:00:43;98366.47;;;4.66;87.23
15382;BME280;7789;51.364;12.358;2024-01-15T12:05:49;98362.81;;;4.69;87.14
15382;BME280;7789;51.364;12.358;2024-01-15T12:10:57;98361.03;;;4.79;86.40
15382;BME280;7789;51.364;12.358;2024-01-15T12:16:05;98352.41;;;4.97;86.09
15382;BME280;7789;51.364;12.358;2024-01-15T12:21:11;98365.22;;;4.99;86.12
15382;BME280;7789;51.364;12.358;2024-01-15T12:26:16;98363.88;;;4.95;86.26
15382;BME280;7789;51.364;12.358;2024-01-15T12:31:20;98356.53;;;4.90;85.72
15382;BME280;7789;51.364;12.358;2024-01-15T12:36:25;98372.16;;;4.89;85.65
15382;BME280;7789;51.364;12.358;2024-01-15T12:41:29;98366.47;;;4.95;86.15
15382;BME280;7789;51.364;12.358;2024-01-15T12:46:32;98343.28;;;4.93;86.09
15382;BME280;7789;51.364;12.358;2024-01-15T12:51:37;98349.97;;;4.96;86.17
15382;BME280;7789;51.364;12.358;2024-01-15T12:56:41;98352.09;;;5.10;86.15
15382;BME280;7789;51.364;12.358;2024-01-15T13:01:45;98344.59;;;5.07;85.80
15382;BME280;7789;51.364;12.358;2024-01-15T13:06:51;98342.94;;;5.15;85.76
15382;BME280;7789;51.364;12.358;2024-01-15T13:11:55;98343.19;;;5.22;85.80
15382;BME280;7789;51.364;12.358;2024-01-15T13:16:59;98356.59;;;5.08;85.21
15382;BME280;7789;51.364;12.358;2024-01-15T13:22:06;98359.34;;;5.06;85.86
15382;BME280;7789;51.364;12.358;2024-01-15T13:27:11;98362.22;;;5.03;85.45
15382;BME280;7789;51.364;12.358;2024-01-15T13:32:17;98370.22;;;5.00;86.02
15382;BME280;7789;51.364;12.358;2024-01-15T13:37:25;98368.59;;;4.99;86.66
15382;BME280;7789;51.364;12.358;2024-01-15T13:42:28;98372.03;;;5.00;86.93
15382;BME280;7789;51.364;12.358;2024-01-15T13:47:32;98369.84;;;4.95;86.73
15382;BME280;7789;51.364;12.358;2024-01-15T13:52:37;98380.19;;;4.95;86.74
15382;BME280;7789;51.364;12.358;2024-01-15T13:57:40;98391.22;;;4.97;87.19
15382;BME280;7789;51.364;12.358;2024-01-15T14:02:44;98394.09;;;4.94;87.41
15382;BME280;7789;51.364;12.358;2024-01-15T14:07:49;98401.19;;;4.92;87.20
15382;BME280;7789;51.364;12.358;2024-01-15T14:12:53;98408.56;;;4.97;87.39
15382;BME280;7789;51.364;12.358;2024-01-15T14:17:57;98399.69;;;4.90;87.05
15382;BME280;7789;51.364;12.358;2024-01-15T14:23:03;98407.72;;;4.87;86.52
15382;BME280;7789;51.364;12.358;2024-01-15T14:28:06;98408.00;;;4.84;86.90
15382;BME280;7789;51.364;12.358;2024-01-15T14:33:12;98418.25;;;4.85;87.05
15382;BME280;7789;51.364;12.358;2024-01-15T14:38:17;98421.25;;;4.81;86.67
15382;BME280;7789;51.364;12.358;2024-01-15T14:43:21;98421.34;;;4.79;87.64
15382;BME280;7789;51.364;12.358;2024-01-15T14:48:24;98427.91;;;4.74;86.91
15382;BME280;7789;51.364;12.358;2024-01-15T14:53:29;98439.75;;;4.67;87.07
15382;BME280;7789;51.364;12.358;2024-01-15T14:58:33;98455.00;;;4.70;88.02
15382;BME280;7789;51.364;12.358;2024-01-15T15:03:36;98445.50;;;4.61;88.00
15382;BME280;7789;51.364;12.358;2024-01-15T15:08:42;98455.84;;;4.51;88.27
15382;BME280;7789;51.364;12.358;2024-01-15T15:13:49;98462.75;;;4.51;88.49
15382;BME280;7789;51.364;12.358;2024-01-15T15:18:53;98459.09;;;4.44;88.83
15382;BME280;7789;51.364;12.358;2024-01-15T15:23:58;98466.28;;;4.40;88.54
15382;BME280;7789;51.364;12.358;2024-01-15T15:29:03;98480.28;;;4.38;89.13
15382;BME280;7789;51.364;12.358;2024-01-15T15:34:11;98483.97;;;4.35;89.38
15382;BME280;7789;51.364;12.358;2024-01-15T15:39:16;98492.81;;;4.33;89.52
15382;BME280;7789;51.364;12.358;2024-01-15T15:44:21;98504.50;;;4.27;90.17
15382;BME280;7789;51.364;12.358;2024-01-15T15:49:29;98498.66;;;4.25;90.84
15382;BME280;7789;51.364;12.358;2024-01-15T15:54:34;98508.56;;;4.20;91.33
15382;BME280;7789;51.364;12.358;2024-01-15T15:59:38;98506.09;;;4.19;90.84
15382;BME280;7789;51.364;12.358;2024-01-15T16:04:41;98505.31;;;4.18;92.16
15382;BME280;7789;51.364;12.358;2024-01-15T16:09:46;98511.53;;;4.16;92.50
15382;BME280;7789;51.364;12.358;2024-01-15T16:14:50;98510.31;;;4.10;92.25
15382;BME280;7789;51.364;12.358;2024-01-15T16:19:54;98511.94;;;4.11;92.84
15382;BME280;7789;51.364;12.358;2024-01-15T16:25:19;98516.41;;;4.09;92.92
15382;BME280;7789;51.364;12.358;2024-01-15T16:30:22;98529.47;;;4.08;92.66
15382;BME280;7789;51.364;12.358;2024-01-15T16:35:39;98524.28;;;4.08;92.62
15382;BME280;7789;51.364;12.358;2024-01-15T16:40:44;98527.28;;;4.03;93.36
15382;BME280;7789;51.364;12.358;2024-01-15T16:45:48;98523.06;;;4.02;93.50
15382;BME280;7789;51.364;12.358;2024-01-15T16:50:53;98538.13;;;3.97;93.37
15382;BME280;7789;51.364;12.358;2024-01-15T16:55:58;98524.25;;;3.98;93.97
15382;BME280;7789;51.364;12.358;2024-01-15T17:01:02;98538.00;;;3.99;93.65
15382;BME280;7789;51.364;12.358;2024-01-15T17:06:06;98525.75;;;3.91;93.65
15382;BME280;7789;51.364;12.358;2024-01-15T17:11:12;98534.06;;;3.95;93.79
15382;BME280;7789;51.364;12.358;2024-01-15T17:16:16;98527.25;;;3.94;93.73
15382;BME280;7789;51.364;12.358;2024-01-15T17:21:20;98528.31;;;3.91;93.82
15382;BME280;7789;51.364;12.358;2024-01-15T17:26:26;98535.66;;;3.86;93.26
15382;BME280;7789;51.364;12.358;2024-01-15T17:31:29;98537.41;;;3.86;93.52
15382;BME280;7789;51.364;12.358;2024-01-15T17:36:33;98537.56;;;3.84;93.42
15382;BME280;7789;51.364;12.358;2024-01-15T17:41:38;98553.53;;;3.78;93.80
15382;BME280;7789;51.364;12.358;2024-01-15T17:46:42;98547.44;;;3.79;93.06
15382;BME280;7789;51.364;12.358;2024-01-15T17:51:46;98548.41;;;3.88;94.00
15382;BME280;7789;51.364;12.358;2024-01-15T17:56:51;98555.22;;;3.89;94.11
15382;BME280;7789;51.364;12.358;2024-01-15T18:01:55;98558.75;;;3.88;94.98
15382;BME280;7789;51.364;12.358;2024-01-15T18:07:01;98557.28;;;3.85;95.17
15382;BME280;7789;51.364;12.358;2024-01-15T18:12:07;98564.34;;;3.83;95.45
15382;BME280;7789;51.364;12.358;2024-01-15T18:17:14;98559.66;;;3.77;96.62
15382;BME280;7789;51.364;12.358;2024-01-15T18:22:18;98567.09;;;3.71;96.49
15382;BME280;7789;51.364;12.358;2024-01-15T18:27:24;98557.59;;;3.71;96.76
15382;BME280;7789;51.364;12.358;2024-01-15T18:32:30;98567.66;;;3.74;96.87
15382;BME280;7789;51.364;12.358;2024-01-15T18:37:34;98570.13;;;3.76;97.21
15382;BME280;7789;51.364;12.358;2024-01-15T18:42:41;98573.53;;;3.76;96.56
15382;BME280;7789;51.364;12.358;2024-01-15T18:47:48;98579.25;;;3.80;97.03
15382;BME280;7789;51.364;12.358;2024-01-15T18:52:53;98593.94;;;3.79;95.99
15382;BME280;7789;51.364;12.358;2024-01-15T18:57:58;98614.34;;;3.82;95.79
15382;BME280;7789;51.364;12.358;2024-01-15T19:03:08;98618.34;;;3.86;95.71
15382;BME280;7789;51.364;12.358;2024-01-15T19:08:19;98619.50;;;3.82;95.79
15382;BME280;7789;51.364;12.358;2024-01-15T19:13:24;98625.81;;;3.89;95.96
15382;BME280;7789;51.364;12.358;2024-01-15T19:18:28;98634.78;;;3.85;96.92
15382;BME280;7789;51.364;12.358;2024-01-15T19:23:33;98628.84;;;3.74;98.93
15382;BME280;7789;51.364;12.358;2024-01-15T19:28:41;98631.81;;;3.69;99.95
15382;BME280;7789;51.364;12.358;2024-01-15T19:34:02;98647.44;;;3.68;100.00
15382;BME280;7789;51.364;12.358;2024-01-15T19:39:07;98655.88;;;3.70;100.00
15382;BME280;7789;51.364;12.358;2024-01-15T19:44:16;98662.25;;;3.66;100.00
15382;BME280;7789;51.364;12.358;2024-01-15T19:49:28;98677.75;;;3.66;100.00
15382;BME280;7789;51.364;12.358;2024-01-15T19:54:33;98672.56;;;3.66;100.00
15382;BME280;7789;51.364;12.358;2024-01-15T19:59:47;98688.91;;;3.66;100.00
15382;BME280;7789;51.364;12.358;2024-01-15T20:04:52;98696.66;;;3.66;100.00
15382;BME280;7789;51.364;12.358;2024-01-15T20:09:59;98712.97;;;3.67;100.00
15382;BME280;7789;51.364;12.358;2024-01-15T20:15:05;98730.00;;;3.69;100.00
15382;BME280;7789;51.364;12.358;2024-01-15T20:20:12;98742.06;;;3.69;100.00
15382;BME280;7789;51.364;12.358;2024-01-15T20:25:17;98758.66;;;3.66;100.00
15382;BME280;7789;51.364;12.358;2024-01-15T20:30:22;98761.59;;;3.62;100.00
15382;BME280;7789;51.364;12.358;2024-01-15T20:35:26;98762.78;;;3.58;100.00
15382;BME280;7789;51.364;12.358;2024-01-15T20:40:31;98774.88;;;3.58;100.00
15382;BME280;7789;51.364;12.358;2024-01-15T20:45:38;98778.72;;;3.63;100.00
15382;BME280;7789;51.364;12.358;2024-01-15T20:50:42;98786.13;;;3.67;100.00
15382;BME280;7789;51.364;12.358;2024-01-15T20:55:46;98778.13;;;3.70;100.00
15382;BME280;7789;51.364;12.358;2024-01-15T21:00:51;98783.28;;;3.70;100.00
15382;BME280;7789;51.364;12.358;2024-01-15T21:05:56;98796.56;;;3.66;100.00
15382;BME280;7789;51.364;12.358;2024-01-15T21:11:01;98800.91;;;3.65;100.00
15382;BME280;7789;51.364;12.358;2024-01-15T21:16:10;98810.53;;;3.63;100.00
15382;BME280;7789;51.364;12.358;2024-01-15T21:21:14;98814.44;;;3.58;100.00
15382;BME280;7789;51.364;12.358;2024-01-15T21:26:17;98809.38;;;3.57;100.00
15382;BME280;7789;51.364;12.358;2024-01-15T21:31:23;98825.25;;;3.52;100.00
15382;BME280;7789;51.364;12.358;2024-01-15T21:36:27;98832.03;;;3.53;100.00
15382;BME280;7789;51.364;12.358;2024-01-15T21:41:30;98846.50;;;3.56;100.00
15382;BME280;7789;51.364;12.358;2024-01-15T21:46:40;98844.50;;;3.59;100.00
15382;BME280;7789;51.364;12.358;2024-01-15T21:51:44;98847.78;;;3.61;100.00
15382;BME280;7789;51.364;12.358;2024-01-15T21:56:49;98856.34;;;3.61;100.00
15382;BME280;7789;51.364;12.358;2024-01-15T22:02:00;98863.16;;;3.62;100.00
15382;BME280;7789;51.364;12.358;2024-01-15T22:07:10;98871.72;;;3.63;100.00
15382;BME280;7789;51.364;12.358;2024-01-15T22:12:13;98863.63;;;3.67;100.00
15382;BME280;7789;51.364;12.358;2024-01-15T22:17:18;98874.53;;;3.71;100.00
15382;BME280;7789;51.364;12.358;2024-01-15T22:22:22;98879.13;;;3.67;100.00
15382;BME280;7789;51.364;12.358;2024-01-15T22:27:26;98886.16;;;3.65;100.00
15382;BME280;7789;51.364;12.358;2024-01-15T22:32:31;98894.63;;;3.67;99.42
15382;BME280;7789;51.364;12.358;2024-01-15T22:37:35;98905.06;;;3.66;98.79
15382;BME280;7789;51.364;12.358;2024-01-15T22:42:39;98905.91;;;3.66;97.96
15382;BME280;7789;51.364;12.358;2024-01-15T22:47:45;98909.03;;;3.70;97.44
15382;BME280;7789;51.364;12.358;2024-01-15T22:52:48;98914.81;;;3.73;97.24
15382;BME280;7789;51.364;12.358;2024-01-15T22:57:53;98913.97;;;3.73;96.44
15382;BME280;7789;51.364;12.358;2024-01-15T23:02:58;98925.25;;;3.72;96.45
15382;BME280;7789;51.364;12.358;2024-01-15T23:08:03;98928.06;;;3.69;95.39
15382;BME280;7789;51.364;12.358;2024-01-15T23:13:07;98933.84;;;3.72;94.74
15382;BME280;7789;51.364;12.358;2024-01-15T23:18:12;98931.50;;;3.69;95.05
15382;BME280;7789;51.364;12.358;2024-01-15T23:23:16;98937.47;;;3.70;94.57
15382;BME280;7789;51.364;12.358;2024-01-15T23:28:19;98937.72;;;3.67;95.25
15382;BME280;7789;51.364;12.358;2024-01-15T23:33:24;98948.75;;;3.58;95.79
15382;BME280;7789;51.364;12.358;2024-01-15T23:38:28;98953.19;;;3.56;96.58
15382;BME280;7789;51.364;12.358;2024-01-15T23:43:32;98959.31;;;3.55;96.91
15382;BME280;7789;51.364;12.358;2024-01-15T23:48:38;98954.03;;;3.57;97.50
15382;BME280;7789;51.364;12.358;2024-01-15T23:53:42;98964.47;;;3.55;98.15
15382;BME280;7789;51.364;12.358;2024-01-15T23:58:45;98961.19;;;3.53;98.20
